createdAt,value
2018-06-13T00:01:43.538Z,95414.66
2018-06-13T00:04:12.143Z,95421.03
2018-06-13T00:06:40.807Z,95418.92
2018-06-13T00:09:09.768Z,95416.70
2018-06-13T00:11:38.282Z,95418.75
2018-06-13T00:14:06.805Z,95406.05
2018-06-13T00:16:35.333Z,95413.17
2018-06-13T00:19:03.853Z,95404.77
2018-06-13T00:21:32.508Z,95399.73
2018-06-13T00:24:01.017Z,95402.78
2018-06-13T00:26:29.568Z,95408.62
2018-06-13T00:28:58.221Z,95337.48
2018-06-13T00:31:26.779Z,95395.48
2018-06-13T00:33:55.357Z,95392.95
2018-06-13T00:36:23.881Z,95398.59
2018-06-13T00:38:52.420Z,95412.45
2018-06-13T00:41:20.956Z,95407.86
2018-06-13T00:43:49.573Z,95415.38
2018-06-13T00:46:18.109Z,95411.17
2018-06-13T00:48:46.705Z,95397.69
2018-06-13T00:51:15.376Z,95405.33
2018-06-13T00:53:44.015Z,95415.02
2018-06-13T00:56:23.794Z,95419.59
2018-06-13T00:58:52.314Z,95418.73
2018-06-13T01:01:20.918Z,95423.75
2018-06-13T01:03:49.457Z,95424.19
2018-06-13T01:06:18.038Z,95415.30
2018-06-13T01:08:46.612Z,95413.58
2018-06-13T01:11:15.182Z,95406.36
2018-06-13T01:13:43.747Z,95398.83
2018-06-13T01:16:12.268Z,95403.05
2018-06-13T01:18:42.241Z,95406.41
2018-06-13T01:21:10.794Z,95396.28
2018-06-13T01:23:39.944Z,95394.21
2018-06-13T01:26:08.633Z,95392.94
2018-06-13T01:28:37.281Z,95388.31
2018-06-13T01:31:06.117Z,95401.38
2018-06-13T01:33:35.006Z,95423.83
2018-06-13T01:36:03.669Z,95427.20
2018-06-13T01:38:32.725Z,95437.82
2018-06-13T01:41:01.278Z,95432.94
2018-06-13T01:43:30.584Z,95430.74
2018-06-13T01:45:59.220Z,95424.71
2018-06-13T01:48:27.881Z,95422.69
2018-06-13T01:50:58.852Z,95431.08
2018-06-13T01:53:30.098Z,95435.28
2018-06-13T01:56:00.050Z,95447.03
2018-06-13T01:58:29.126Z,95446.20
2018-06-13T02:00:57.922Z,95431.66
2018-06-13T02:03:27.361Z,95449.84
2018-06-13T02:05:56.292Z,95441.72
2018-06-13T02:08:25.278Z,95444.08
2018-06-13T02:10:54.758Z,95457.16
2018-06-13T02:13:23.503Z,95436.82
2018-06-13T02:15:52.770Z,95446.16
2018-06-13T02:18:21.549Z,95455.88
2018-06-13T02:20:50.324Z,95449.15
2018-06-13T02:23:19.661Z,95471.12
2018-06-13T02:25:48.420Z,95469.42
2018-06-13T02:28:17.216Z,95462.23
2018-06-13T02:30:46.156Z,95459.68
2018-06-13T02:33:14.992Z,95444.85
2018-06-13T02:35:43.697Z,95443.56
2018-06-13T02:38:12.710Z,95462.53
2018-06-13T02:40:41.601Z,94651.03
2018-06-13T02:43:10.974Z,95458.80
2018-06-13T02:45:39.637Z,95479.39
2018-06-13T02:48:08.394Z,95473.95
2018-06-13T02:50:37.061Z,95476.44
2018-06-13T02:53:06.657Z,95472.63
2018-06-13T02:55:35.825Z,95470.48
2018-06-13T02:58:04.464Z,95487.00
2018-06-13T03:00:33.322Z,95476.75
2018-06-13T03:03:02.049Z,95479.27
2018-06-13T03:05:33.016Z,95497.77
2018-06-13T03:08:01.779Z,95489.65
2018-06-13T03:10:30.745Z,95478.96
2018-06-13T03:12:59.782Z,95486.08
2018-06-13T03:15:28.736Z,95490.27
2018-06-13T03:17:57.423Z,95492.21
2018-06-13T03:20:26.505Z,95482.42
2018-06-13T03:22:55.308Z,95502.56
2018-06-13T03:25:24.656Z,95500.42
2018-06-13T03:27:53.709Z,95493.78
2018-06-13T03:30:23.522Z,95510.84
2018-06-13T03:32:52.354Z,94025.38
2018-06-13T03:35:21.151Z,95530.23
2018-06-13T03:37:49.855Z,95547.06
2018-06-13T03:40:18.542Z,95562.66
2018-06-13T03:42:47.196Z,95586.59
2018-06-13T03:45:16.129Z,95595.10
2018-06-13T03:47:45.176Z,95601.97
2018-06-13T03:50:13.838Z,95584.38
2018-06-13T03:52:43.648Z,95610.90
2018-06-13T03:55:12.312Z,95606.52
2018-06-13T03:57:42.677Z,95623.03
2018-06-13T04:00:12.157Z,95608.08
2018-06-13T04:02:40.809Z,95595.95
2018-06-13T04:05:09.587Z,95607.88
2018-06-13T04:07:38.364Z,95575.55
2018-06-13T04:10:07.061Z,95639.34
2018-06-13T04:12:35.766Z,95610.82
2018-06-13T04:15:04.819Z,95600.95
2018-06-13T04:17:33.431Z,95595.31
2018-06-13T04:20:01.989Z,94541.93
2018-06-13T04:22:30.860Z,95610.91
2018-06-13T04:24:59.480Z,95606.59
2018-06-13T04:27:28.209Z,95596.86
2018-06-13T04:29:57.015Z,95599.86
2018-06-13T04:32:25.742Z,95620.03
2018-06-13T04:34:54.380Z,95592.05
2018-06-13T04:37:23.075Z,95620.19
2018-06-13T04:39:51.721Z,95618.95
2018-06-13T04:42:20.471Z,95598.61
2018-06-13T04:44:50.116Z,95606.19
2018-06-13T04:47:19.060Z,95648.08
2018-06-13T04:49:47.760Z,95620.95
2018-06-13T04:52:16.369Z,95613.00
2018-06-13T04:54:45.209Z,95636.84
2018-06-13T04:57:14.155Z,95629.73
2018-06-13T04:59:42.900Z,95646.20
2018-06-13T05:02:11.561Z,95635.72
2018-06-13T05:04:40.356Z,95641.72
2018-06-13T05:07:09.364Z,95671.78
2018-06-13T05:09:38.421Z,95664.36
2018-06-13T05:12:07.113Z,95640.67
2018-06-13T05:14:35.764Z,95668.48
2018-06-13T05:17:04.593Z,95641.63
2018-06-13T05:19:33.446Z,95672.37
2018-06-13T05:22:02.457Z,95693.78
2018-06-13T05:24:31.364Z,95728.20
2018-06-13T05:27:00.088Z,95676.79
2018-06-13T05:29:28.937Z,95680.28
2018-06-13T05:31:57.860Z,95674.48
2018-06-13T05:34:26.772Z,95696.98
2018-06-13T05:36:56.458Z,95697.91
2018-06-13T05:39:26.026Z,95713.61
2018-06-13T05:41:54.916Z,95726.25
2018-06-13T05:44:23.632Z,95701.34
2018-06-13T05:46:52.305Z,95729.52
2018-06-13T05:49:21.426Z,95711.08
2018-06-13T05:51:49.966Z,95702.61
2018-06-13T05:54:18.517Z,95713.70
2018-06-13T05:56:47.259Z,95785.19
2018-06-13T05:59:16.622Z,95822.97
2018-06-13T06:01:45.730Z,95830.11
2018-06-13T06:04:14.518Z,95832.17
2018-06-13T06:06:44.440Z,95834.23
2018-06-13T06:09:13.786Z,95810.79
2018-06-13T06:11:43.287Z,95811.34
2018-06-13T06:14:13.301Z,95818.70
2018-06-13T06:16:42.354Z,95824.50
2018-06-13T06:19:11.626Z,95837.70
2018-06-13T06:21:40.750Z,95819.76
2018-06-13T06:24:09.780Z,95811.03
2018-06-13T06:26:38.673Z,95807.89
2018-06-13T06:29:07.792Z,95830.38
2018-06-13T06:31:37.364Z,95828.12
2018-06-13T06:34:06.425Z,95826.83
2018-06-13T06:36:35.314Z,95828.20
2018-06-13T06:39:04.670Z,95833.86
2018-06-13T06:41:33.621Z,95828.19
2018-06-13T06:44:02.773Z,95833.27
2018-06-13T06:46:32.082Z,95825.45
2018-06-13T06:49:01.239Z,95813.59
2018-06-13T06:51:31.105Z,95829.32
2018-06-13T06:53:59.880Z,95831.50
2018-06-13T06:56:28.934Z,95829.05
2018-06-13T06:58:58.189Z,95832.52
2018-06-13T07:01:27.242Z,95837.74
2018-06-13T07:03:56.899Z,95852.58
2018-06-13T07:06:25.934Z,95867.37
2018-06-13T07:08:54.970Z,95881.41
2018-06-13T07:11:23.963Z,95874.05
2018-06-13T07:13:52.985Z,95879.20
2018-06-13T07:16:22.273Z,95877.66
2018-06-13T07:18:51.162Z,95889.72
2018-06-13T07:21:20.394Z,95896.37
2018-06-13T07:23:49.991Z,95905.63
2018-06-13T07:26:18.905Z,95921.93
2018-06-13T07:28:48.411Z,95923.11
2018-06-13T07:31:17.888Z,95904.09
2018-06-13T07:33:47.039Z,95900.55
2018-06-13T07:36:15.953Z,95904.42
2018-06-13T07:38:45.343Z,95895.85
2018-06-13T07:41:14.520Z,95929.72
2018-06-13T07:43:43.776Z,95911.12
2018-06-13T07:46:12.748Z,95928.26
2018-06-13T07:48:41.866Z,95946.15
2018-06-13T07:51:10.565Z,95954.50
2018-06-13T07:53:39.545Z,95951.42
2018-06-13T07:56:14.793Z,95961.03
2018-06-13T07:58:43.875Z,95940.33
2018-06-13T08:01:12.657Z,95965.55
2018-06-13T08:03:41.739Z,95974.17
2018-06-13T08:06:11.063Z,95990.16
2018-06-13T08:08:40.115Z,95981.78
2018-06-13T08:11:09.471Z,96014.06
2018-06-13T08:13:38.643Z,95996.93
2018-06-13T08:16:07.809Z,96043.53
2018-06-13T08:18:37.202Z,96052.70
2018-06-13T08:21:06.622Z,96062.92
2018-06-13T08:23:35.666Z,96053.78
2018-06-13T08:26:04.840Z,96064.41
2018-06-13T08:28:33.875Z,96034.77
2018-06-13T08:31:03.023Z,96066.44
2018-06-13T08:33:32.325Z,96044.77
2018-06-13T08:36:01.456Z,96075.20
2018-06-13T08:38:30.304Z,96091.75
2018-06-13T08:40:59.317Z,96070.90
2018-06-13T08:43:29.118Z,96104.66
2018-06-13T08:45:58.344Z,96112.91
2018-06-13T08:48:27.605Z,96088.27
2018-06-13T08:50:56.510Z,96110.47
2018-06-13T08:53:25.313Z,96125.28
2018-06-13T08:55:54.236Z,96091.20
2018-06-13T08:58:23.849Z,96119.24
2018-06-13T09:00:52.946Z,96126.76
2018-06-13T09:03:22.295Z,96193.11
2018-06-13T09:05:51.104Z,96207.22
2018-06-13T09:08:20.239Z,96227.67
2018-06-13T09:10:49.449Z,96217.36
2018-06-13T09:13:18.236Z,96272.48
2018-06-13T09:15:47.560Z,96248.65
2018-06-13T09:18:16.646Z,96273.33
2018-06-13T09:20:46.007Z,96211.57
2018-06-13T09:23:14.887Z,96229.09
2018-06-13T09:25:44.257Z,96256.31
2018-06-13T09:28:13.490Z,96300.80
2018-06-13T09:30:42.531Z,96319.20
2018-06-13T09:33:11.574Z,96317.03
2018-06-13T09:35:40.756Z,96302.33
2018-06-13T09:38:09.870Z,96256.83
2018-06-13T09:40:39.595Z,96287.63
2018-06-13T09:43:09.473Z,96324.66
2018-06-13T09:45:38.023Z,96374.61
2018-06-13T09:48:07.515Z,96399.00
2018-06-13T09:50:36.704Z,96417.85
2018-06-13T09:53:05.558Z,96421.93
2018-06-13T09:55:34.417Z,96441.32
2018-06-13T09:58:03.713Z,96452.23
2018-06-13T10:00:37.913Z,96431.09
2018-06-13T10:03:07.477Z,96416.50
2018-06-13T10:05:36.314Z,96385.73
2018-06-13T10:08:05.490Z,96383.30
2018-06-13T10:10:34.481Z,96409.18
2018-06-13T10:13:03.143Z,96426.44
2018-06-13T10:15:32.589Z,96425.78
2018-06-13T10:18:02.019Z,96409.50
2018-06-13T10:20:30.618Z,96402.72
2018-06-13T10:22:59.786Z,96381.84
2018-06-13T10:25:29.412Z,96389.33
2018-06-13T10:27:58.303Z,96401.14
2018-06-13T10:30:27.197Z,96434.77
2018-06-13T10:32:55.952Z,96441.13
2018-06-13T10:35:25.203Z,96459.55
2018-06-13T10:37:55.081Z,96472.05
2018-06-13T10:40:23.875Z,96489.02
2018-06-13T10:42:52.999Z,96492.04
2018-06-13T10:45:21.674Z,96489.53
2018-06-13T10:47:51.275Z,96492.05
2018-06-13T10:50:19.841Z,96489.86
2018-06-13T10:52:49.179Z,96507.31
2018-06-13T10:55:18.329Z,96499.52
2018-06-13T10:57:48.433Z,96504.16
2018-06-13T11:00:17.448Z,96478.49
2018-06-13T11:02:46.891Z,96504.76
2018-06-13T11:05:16.111Z,96525.73
2018-06-13T11:07:45.195Z,96544.34
2018-06-13T11:10:13.734Z,96563.63
2018-06-13T11:12:42.327Z,96575.86
2018-06-13T11:15:11.301Z,96572.33
2018-06-13T11:17:40.108Z,96584.80
2018-06-13T11:20:09.082Z,96613.66
2018-06-13T11:22:38.124Z,96566.07
2018-06-13T11:25:07.343Z,96641.60
2018-06-13T11:27:36.085Z,96682.62
2018-06-13T11:30:05.305Z,96721.45
2018-06-13T11:32:33.972Z,96697.34
2018-06-13T11:35:06.934Z,96712.66
2018-06-13T11:37:36.640Z,96719.94
2018-06-13T11:40:05.386Z,96729.74
2018-06-13T11:42:34.144Z,96760.41
2018-06-13T11:45:02.840Z,96745.97
2018-06-13T11:47:31.825Z,96776.08
2018-06-13T11:50:00.962Z,96784.64
2018-06-13T11:52:29.514Z,96797.58
2018-06-13T11:54:58.402Z,96831.37
2018-06-13T11:57:27.052Z,96845.37
2018-06-13T11:59:56.737Z,96876.17
2018-06-13T12:02:25.811Z,96876.95
2018-06-13T12:04:55.577Z,96875.58
2018-06-13T12:07:24.081Z,96838.02
2018-06-13T12:09:53.103Z,96805.70
2018-06-13T12:12:22.135Z,96782.86
2018-06-13T12:14:51.131Z,96769.66
2018-06-13T12:17:20.017Z,96770.09
2018-06-13T12:19:49.760Z,96743.25
2018-06-13T12:22:18.414Z,96721.17
2018-06-13T12:24:47.787Z,96702.43
2018-06-13T12:27:16.441Z,96721.00
2018-06-13T12:29:45.321Z,96695.72
2018-06-13T12:32:14.324Z,96676.34
2018-06-13T12:34:43.346Z,96665.77
2018-06-13T12:37:12.820Z,96645.11
2018-06-13T12:39:41.614Z,96651.06
2018-06-13T12:42:10.200Z,96646.91
2018-06-13T12:44:38.976Z,96644.37
2018-06-13T12:47:07.578Z,96659.75
2018-06-13T12:49:36.482Z,96649.39
2018-06-13T12:52:06.501Z,96654.48
2018-06-13T12:54:35.363Z,96678.59
2018-06-13T12:57:04.666Z,96670.75
2018-06-13T12:59:33.521Z,96695.93
2018-06-13T13:02:03.510Z,96693.15
2018-06-13T13:04:32.768Z,96710.70
2018-06-13T13:07:01.983Z,96722.91
2018-06-13T13:09:30.705Z,96730.55
2018-06-13T13:11:59.580Z,96737.24
2018-06-13T13:14:28.650Z,96751.03
2018-06-13T13:16:57.609Z,96744.09
2018-06-13T13:19:26.487Z,96770.71
2018-06-13T13:21:55.720Z,96753.89
2018-06-13T13:24:25.140Z,96756.47
2018-06-13T13:26:53.918Z,96777.23
2018-06-13T13:29:23.278Z,96763.88
2018-06-13T13:31:51.918Z,96781.37
2018-06-13T13:34:20.970Z,96767.79
2018-06-13T13:36:50.590Z,96748.26
2018-06-13T13:39:23.489Z,96745.27
2018-06-13T13:41:52.140Z,96755.81
2018-06-13T13:44:21.038Z,96747.37
2018-06-13T13:46:50.320Z,96760.17
2018-06-13T13:49:19.581Z,96745.25
2018-06-13T13:51:48.572Z,96766.70
2018-06-13T13:54:17.486Z,96768.19
2018-06-13T13:56:46.147Z,96754.91
2018-06-13T13:59:16.243Z,96778.67
2018-06-13T14:01:45.803Z,96774.98
2018-06-13T14:04:14.677Z,96761.37
2018-06-13T14:06:44.094Z,96752.08
2018-06-13T14:09:14.491Z,96769.60
2018-06-13T14:11:43.009Z,96762.93
2018-06-13T14:14:11.691Z,96781.46
2018-06-13T14:16:41.305Z,96782.39
2018-06-13T14:19:10.438Z,96788.84
2018-06-13T14:21:40.276Z,96800.21
2018-06-13T14:24:08.810Z,96783.59
2018-06-13T14:26:38.289Z,96810.39
2018-06-13T14:29:07.164Z,96807.80
2018-06-13T14:31:36.116Z,96805.08
2018-06-13T14:34:05.436Z,96832.67
2018-06-13T14:36:34.706Z,96857.17
2018-06-13T14:39:04.489Z,96860.20
2018-06-13T14:41:33.559Z,96875.44
2018-06-13T14:44:02.363Z,96869.25
2018-06-13T14:46:31.598Z,96861.21
2018-06-13T14:49:00.908Z,96864.69
2018-06-13T14:51:29.573Z,96845.63
2018-06-13T14:53:59.848Z,96880.80
2018-06-13T14:56:31.624Z,96861.70
2018-06-13T14:59:01.560Z,96837.59
2018-06-13T15:01:31.637Z,96824.73
2018-06-13T15:04:00.324Z,96831.58
2018-06-13T15:06:28.892Z,96844.00
2018-06-13T15:08:58.305Z,96829.48
2018-06-13T15:11:27.848Z,96837.48
2018-06-13T15:13:56.939Z,96823.59
2018-06-13T15:16:26.106Z,96847.45
2018-06-13T15:18:56.074Z,96835.39
2018-06-13T15:21:25.316Z,96855.16
2018-06-13T15:23:53.829Z,96840.66
2018-06-13T15:26:22.805Z,96850.61
2018-06-13T15:28:52.536Z,96851.78
2018-06-13T15:31:21.374Z,96847.17
2018-06-13T15:33:51.102Z,96852.22
2018-06-13T15:36:19.853Z,96866.39
2018-06-13T15:38:49.608Z,96863.80
2018-06-13T15:41:18.693Z,96873.34
2018-06-13T15:43:47.705Z,96851.03
2018-06-13T15:46:16.736Z,96857.38
2018-06-13T15:48:45.413Z,96859.80
2018-06-13T15:51:14.692Z,96869.27
2018-06-13T15:53:43.216Z,96849.08
2018-06-13T15:56:12.761Z,96863.19
2018-06-13T15:58:41.507Z,96859.39
2018-06-13T16:01:10.091Z,96877.39
2018-06-13T16:03:38.744Z,96866.05
2018-06-13T16:06:07.421Z,96868.66
2018-06-13T16:08:37.762Z,96874.92
2018-06-13T16:11:06.662Z,96892.55
2018-06-13T16:13:42.984Z,96895.89
2018-06-13T16:16:12.244Z,96896.27
2018-06-13T16:18:41.915Z,96889.67
2018-06-13T16:21:11.306Z,96886.23
2018-06-13T16:23:40.635Z,96862.48
2018-06-13T16:26:10.250Z,96862.88
2018-06-13T16:28:39.192Z,96864.48
2018-06-13T16:31:08.938Z,96876.34
2018-06-13T16:33:37.940Z,96874.72
2018-06-13T16:36:06.899Z,96880.86
2018-06-13T16:38:37.045Z,96866.17
2018-06-13T16:41:06.705Z,96868.55
2018-06-13T16:43:35.864Z,96863.67
2018-06-13T16:46:05.282Z,96869.37
2018-06-13T16:48:35.215Z,96863.69
2018-06-13T16:51:15.291Z,96864.80
2018-06-13T16:54:04.553Z,96864.59
2018-06-13T16:56:35.150Z,96850.91
2018-06-13T16:59:04.142Z,96850.19
2018-06-13T17:01:33.828Z,96828.00
2018-06-13T17:04:03.992Z,96860.74
2018-06-13T17:06:33.910Z,96861.84
2018-06-13T17:09:03.413Z,96865.31
2018-06-13T17:11:33.344Z,96850.03
2018-06-13T17:14:03.191Z,96863.88
2018-06-13T17:16:32.794Z,96864.11
2018-06-13T17:19:02.571Z,96859.92
2018-06-13T17:21:32.088Z,96838.23
2018-06-13T17:24:02.378Z,96833.70
2018-06-13T17:26:33.089Z,96836.02
2018-06-13T17:29:02.507Z,96847.89
2018-06-13T17:31:32.109Z,96854.31
2018-06-13T17:34:01.648Z,96810.81
2018-06-13T17:36:31.409Z,96831.17
2018-06-13T17:39:01.453Z,96850.09
2018-06-13T17:41:30.492Z,96842.95
2018-06-13T17:43:59.477Z,96835.12
2018-06-13T17:46:28.404Z,96829.73
2018-06-13T17:48:58.801Z,96830.09
2018-06-13T17:51:29.656Z,96827.56
2018-06-13T17:53:59.686Z,96808.81
2018-06-13T17:56:30.807Z,96707.15
2018-06-13T17:59:01.023Z,96807.97
2018-06-13T18:01:31.424Z,96800.36
2018-06-13T18:04:01.847Z,96781.73
2018-06-13T18:06:34.115Z,96788.63
2018-06-13T18:09:04.407Z,96781.41
2018-06-13T18:11:34.822Z,96768.01
2018-06-13T18:14:04.847Z,96755.55
2018-06-13T18:16:34.592Z,96766.63
2018-06-13T18:19:04.494Z,96064.34
2018-06-13T18:21:34.543Z,96774.78
2018-06-13T18:24:04.808Z,96771.73
2018-06-13T18:26:35.128Z,96758.19
2018-06-13T18:29:06.688Z,96751.68
2018-06-13T18:31:37.316Z,96746.16
2018-06-13T18:34:06.836Z,96724.72
2018-06-13T18:36:37.348Z,96722.95
2018-06-13T18:39:11.284Z,96774.20
2018-06-13T18:41:41.947Z,96747.78
2018-06-13T18:44:12.671Z,96727.84
2018-06-13T18:46:42.176Z,96742.41
2018-06-13T18:49:11.948Z,96753.27
2018-06-13T18:51:41.678Z,96808.83
2018-06-13T18:54:11.309Z,96803.70
2018-06-13T18:56:40.947Z,96807.33
2018-06-13T18:59:11.573Z,96783.80
2018-06-13T19:01:42.677Z,96784.16
2018-06-13T19:04:12.671Z,96785.06
2018-06-13T19:06:43.189Z,96805.06
2018-06-13T19:09:13.073Z,96796.58
2018-06-13T19:11:42.958Z,96803.22
2018-06-13T19:14:12.472Z,96790.19
2018-06-13T19:16:41.992Z,96783.19
2018-06-13T19:19:11.808Z,96799.27
2018-06-13T19:21:41.400Z,96795.65
2018-06-13T19:24:11.123Z,96802.70
2018-06-13T19:26:40.427Z,96796.23
2018-06-13T19:29:10.283Z,96798.14
2018-06-13T19:31:40.529Z,96796.56
2018-06-13T19:34:10.374Z,96805.91
2018-06-13T19:36:39.673Z,96825.92
2018-06-13T19:39:10.437Z,96834.87
2018-06-13T19:41:39.422Z,96827.82
2018-06-13T19:44:08.441Z,96839.75
2018-06-13T19:46:37.413Z,96831.30
2018-06-13T19:49:06.445Z,96850.81
2018-06-13T19:51:35.456Z,96838.03
2018-06-13T19:54:09.808Z,96854.42
2018-06-13T19:56:38.709Z,96847.52
2018-06-13T19:59:08.349Z,96853.36
2018-06-13T20:01:38.064Z,96869.31
2018-06-13T20:04:11.983Z,96868.66
2018-06-13T20:06:41.248Z,96861.00
2018-06-13T20:09:12.454Z,96867.14
2018-06-13T20:11:42.226Z,96850.19
2018-06-13T20:14:16.345Z,96859.18
2018-06-13T20:16:53.435Z,96857.52
2018-06-13T20:19:27.352Z,96861.07
2018-06-13T20:21:57.589Z,96877.40
2018-06-13T20:24:29.823Z,96878.79
2018-06-13T20:27:04.521Z,96877.85
2018-06-13T20:29:39.643Z,96880.94
2018-06-13T20:32:09.009Z,96897.53
2018-06-13T20:34:38.756Z,96897.47
2018-06-13T20:37:08.252Z,96905.07
2018-06-13T20:39:37.737Z,96894.81
2018-06-13T20:42:07.408Z,96891.41
2018-06-13T20:44:37.030Z,96909.13
2018-06-13T20:47:06.903Z,96900.66
2018-06-13T20:49:36.235Z,96899.45
2018-06-13T20:52:05.597Z,96913.74
2018-06-13T20:54:35.228Z,96886.53
2018-06-13T20:57:05.509Z,96881.95
2018-06-13T20:59:34.894Z,96895.30
2018-06-13T21:02:04.548Z,96880.17
2018-06-13T21:04:33.484Z,96873.72
2018-06-13T21:07:02.244Z,96857.19
2018-06-13T21:09:32.510Z,96874.37
2018-06-13T21:12:01.560Z,96882.84
2018-06-13T21:14:30.986Z,96888.16
2018-06-13T21:17:00.856Z,96897.83
2018-06-13T21:19:30.605Z,96903.16
2018-06-13T21:22:00.339Z,96911.03
2018-06-13T21:24:29.820Z,96909.12
2018-06-13T21:26:59.082Z,96906.58
2018-06-13T21:29:28.047Z,96903.38
2018-06-13T21:31:56.941Z,96891.08
2018-06-13T21:34:25.865Z,96914.56
2018-06-13T21:36:55.085Z,96912.45
2018-06-13T21:39:24.320Z,96924.94
2018-06-13T21:41:53.520Z,96920.64
2018-06-13T21:44:26.787Z,96934.00
2018-06-13T21:46:56.593Z,96911.84
2018-06-13T21:49:26.063Z,96909.23
2018-06-13T21:51:55.031Z,96947.34
2018-06-13T21:54:29.037Z,96913.66
2018-06-13T21:56:59.612Z,96942.34
2018-06-13T21:59:32.786Z,96901.06
2018-06-13T22:02:02.709Z,96887.21
2018-06-13T22:04:33.377Z,96899.92
2018-06-13T22:07:02.200Z,96901.78
2018-06-13T22:09:32.336Z,96915.17
2018-06-13T22:12:01.478Z,96897.52
2018-06-13T22:14:30.793Z,96922.17
2018-06-13T22:16:59.341Z,96914.09
2018-06-13T22:19:28.882Z,96903.13
2018-06-13T22:21:58.026Z,96893.20
2018-06-13T22:24:27.347Z,96889.41
2018-06-13T22:27:03.471Z,96903.27
2018-06-13T22:29:32.828Z,96911.56
2018-06-13T22:32:10.323Z,96930.41
2018-06-13T22:34:42.379Z,96926.16
2018-06-13T22:37:16.477Z,96903.98
2018-06-13T22:39:47.701Z,96884.00
2018-06-13T22:42:24.046Z,96895.88
2018-06-13T22:44:53.652Z,96938.41
2018-06-13T22:47:24.473Z,96940.42
2018-06-13T22:49:58.201Z,96939.61
2018-06-13T22:52:27.320Z,96924.84
2018-06-13T22:54:57.187Z,96931.81
2018-06-13T22:57:26.642Z,96913.19
2018-06-13T22:59:55.494Z,96909.10
2018-06-13T23:02:24.081Z,96927.50
2018-06-13T23:04:53.569Z,96944.69
2018-06-13T23:07:22.800Z,96955.38
2018-06-13T23:09:51.819Z,96932.95
2018-06-13T23:12:22.757Z,96918.69
2018-06-13T23:14:51.270Z,96927.47
2018-06-13T23:17:21.808Z,96918.48
2018-06-13T23:19:51.137Z,96950.31
2018-06-13T23:22:20.412Z,96920.23
2018-06-13T23:24:50.957Z,96939.46
2018-06-13T23:27:22.250Z,96911.63
2018-06-13T23:29:50.992Z,96919.61
2018-06-13T23:32:20.040Z,96940.98
2018-06-13T23:34:49.292Z,96870.20
2018-06-13T23:37:19.246Z,96866.36
2018-06-13T23:39:51.559Z,96875.01
2018-06-13T23:42:20.440Z,96887.80
2018-06-13T23:44:50.099Z,96886.88
2018-06-13T23:47:19.330Z,96893.78
2018-06-13T23:49:48.824Z,96892.52
2018-06-13T23:52:18.239Z,96890.38
2018-06-13T23:54:47.221Z,96887.59
2018-06-13T23:57:16.449Z,96890.20
2018-06-13T23:59:45.933Z,96919.09
